Time;durP1;ratioP1;P1;durP2;ratioP2;P2;SDS_P1;SDS_P2;PMS_P1;PMS_P2;Temp;Humidity;BMP_temperature;BMP_pressure;BME280_temperature;BME280_humidity;BME280_pressure;Samples;Min_cycle;Max_cycle;Signal;HPM_P1;HPM_P2
2022/10/15 00:01:49;;;;;;;71.30;48.50;;;;;;;9.22;84.29;100042.88;103432;1290;106148;-80
2022/10/15 00:04:18;;;;;;;72.70;48.00;;;;;;;9.21;84.17;100039.10;103551;1290;138670;-81
2022/10/15 00:06:46;;;;;;;70.00;48.40;;;;;;;9.19;84.35;100036.73;103427;1298;97744;-77
2022/10/15 00:09:15;;;;;;;72.20;48.20;;;;;;;9.18;84.21;100038.34;103378;1296;140908;-77
2022/10/15 00:11:44;;;;;;;73.80;48.80;;;;;;;9.16;84.31;100035.27;103489;1299;107553;-79
2022/10/15 00:14:13;;;;;;;73.20;49.20;;;;;;;9.15;84.56;100036.33;103405;1285;108092;-78
2022/10/15 00:16:41;;;;;;;79.90;49.70;;;;;;;9.13;84.55;100033.07;103390;1301;138609;-79
2022/10/15 00:19:10;;;;;;;76.70;48.00;;;;;;;9.12;84.68;100035.36;103465;1294;98481;-79
2022/10/15 00:21:39;;;;;;;75.80;50.50;;;;;;;9.11;84.64;100027.23;103311;1295;138748;-81
2022/10/15 00:24:10;;;;;;;78.30;48.60;;;;;;;9.09;84.90;100027.10;103381;1296;106041;-80
2022/10/15 00:26:39;;;;;;;77.30;49.50;;;;;;;9.08;84.88;100026.45;103240;1294;138924;-81
2022/10/15 00:29:07;;;;;;;74.00;49.20;;;;;;;9.06;84.85;100027.90;103401;1301;97839;-82
2022/10/15 00:31:36;;;;;;;77.00;49.90;;;;;;;9.05;84.88;100027.95;103389;1295;97832;-80
2022/10/15 00:34:07;;;;;;;73.40;49.60;;;;;;;9.03;84.90;100022.27;103238;1301;138484;-80
2022/10/15 00:36:36;;;;;;;75.80;49.30;;;;;;;9.01;85.03;100016.95;103272;1300;107348;-79
2022/10/15 00:39:07;;;;;;;83.50;50.70;;;;;;;8.99;85.05;100017.52;103287;1301;138976;-81
2022/10/15 00:41:37;;;;;;;78.80;50.40;;;;;;;8.99;85.05;100020.16;103367;1300;97833;-78
2022/10/15 00:44:38;;;;;;;78.20;50.20;;;;;;;8.98;85.15;100020.52;103512;1297;98353;-79
2022/10/15 00:47:16;;;;;;;76.40;48.60;;;;;;;8.96;85.17;100017.62;103358;1296;111942;-79
2022/10/15 00:49:51;;;;;;;73.50;49.50;;;;;;;8.96;85.15;100015.70;103477;1299;107491;-79
2022/10/15 00:52:23;;;;;;;74.40;48.70;;;;;;;8.94;85.36;100011.44;103329;1290;140301;-79
2022/10/15 00:54:57;;;;;;;77.60;50.10;;;;;;;8.93;85.28;100013.90;103439;1295;97852;-77
2022/10/15 00:57:27;;;;;;;73.60;49.60;;;;;;;8.92;85.35;100011.33;103379;1284;138996;-80
2022/10/15 01:00:01;;;;;;;72.50;50.50;;;;;;;8.91;85.42;100008.77;103476;1297;111264;-81
2022/10/15 01:02:30;;;;;;;75.40;48.90;;;;;;;8.89;85.63;100011.92;103465;1293;107411;-82
2022/10/15 01:04:59;;;;;;;82.70;50.80;;;;;;;8.88;85.58;100007.63;103393;1294;138431;-80
2022/10/15 01:07:28;;;;;;;78.30;51.20;;;;;;;8.87;85.56;100009.73;103452;1293;97834;-79
2022/10/15 01:09:56;;;;;;;79.10;51.90;;;;;;;8.85;85.62;100003.73;103366;1299;138511;-78
2022/10/15 01:12:37;;;;;;;78.90;52.00;;;;;;;8.85;85.74;100001.83;103478;1298;113705;-80
2022/10/15 01:15:14;;;;;;;78.60;50.10;;;;;;;8.85;85.89;100003.05;103256;1294;138799;-82
2022/10/15 01:17:49;;;;;;;82.10;51.60;;;;;;;8.85;85.88;100001.30;103414;1300;107415;-80
2022/10/15 01:20:47;;;;;;;79.10;52.90;;;;;;;8.84;85.89;99997.02;103419;1294;98519;-78
2022/10/15 01:24:02;;;;;;;75.60;50.30;;;;;;;8.83;85.98;99996.02;104784;1283;95988;-79
2022/10/15 01:27:02;;;;;;;71.70;49.60;;;;;;;8.82;85.98;100000.72;102999;1307;111360;-78
2022/10/15 01:29:50;;;;;;;79.00;49.40;;;;;;;8.80;85.99;99995.55;103026;1296;107941;-77
2022/10/15 01:32:24;;;;;;;78.70;50.10;;;;;;;8.80;85.94;99999.38;103057;1297;108010;-82
2022/10/15 01:35:01;;;;;;;73.90;50.80;;;;;;;8.77;85.93;99993.88;102581;1291;139126;-80
2022/10/15 01:37:40;;;;;;;73.20;49.40;;;;;;;8.75;86.05;99994.80;102737;1296;98558;-79
2022/10/15 01:40:14;;;;;;;79.30;51.70;;;;;;;8.73;86.04;99995.41;103412;1302;139928;-77
2022/10/15 01:42:50;;;;;;;80.40;51.30;;;;;;;8.71;86.16;99992.18;103733;1303;107461;-75
2022/10/15 01:45:25;;;;;;;80.20;51.50;;;;;;;8.69;86.09;99994.31;102602;1296;138443;-81
2022/10/15 01:48:14;;;;;;;79.70;49.90;;;;;;;8.68;86.49;99992.44;102698;1286;98003;-81
2022/10/15 01:50:46;;;;;;;79.40;50.40;;;;;;;8.65;86.49;99991.13;102997;1296;98367;-78
2022/10/15 01:53:18;;;;;;;80.00;51.40;;;;;;;8.64;86.28;99987.53;102724;1296;112221;-77
2022/10/15 01:55:48;;;;;;;79.90;50.00;;;;;;;8.62;86.32;99986.20;102655;1303;108338;-78
2022/10/15 01:58:17;;;;;;;75.70;49.60;;;;;;;8.61;86.17;99986.21;102609;1297;138404;-77
2022/10/15 02:00:47;;;;;;;80.30;51.20;;;;;;;8.60;86.31;99982.27;102704;1289;97823;-75
2022/10/15 02:03:16;;;;;;;74.40;49.30;;;;;;;8.58;86.29;99985.60;102708;1288;138286;-78
2022/10/15 02:05:53;;;;;;;78.00;49.20;;;;;;;8.57;86.40;99979.92;102989;1299;111173;-80
2022/10/15 02:08:27;;;;;;;77.40;49.70;;;;;;;8.55;86.28;99976.00;103738;1292;106777;-79
2022/10/15 02:11:03;;;;;;;83.90;52.40;;;;;;;8.52;86.40;99974.17;103240;1295;138242;-80
2022/10/15 02:13:41;;;;;;;78.30;51.00;;;;;;;8.50;86.39;99974.23;103429;1300;98021;-81
2022/10/15 02:16:17;;;;;;;79.60;50.20;;;;;;;8.48;86.42;99968.73;103338;1293;138489;-78
2022/10/15 02:18:56;;;;;;;81.80;51.10;;;;;;;8.45;86.47;99961.72;103394;1293;110503;-79
2022/10/15 02:21:28;;;;;;;;;;;;;;;8.43;86.57;99963.83;103291;1299;138370;-80
2022/10/15 02:24:05;;;;;;;68.30;48.00;;;;;;;8.41;86.76;99967.54;103425;1293;107608;-79
2022/10/15 02:26:35;;;;;;;75.90;50.30;;;;;;;8.39;86.76;99965.34;103311;1299;98693;-79
2022/10/15 02:29:09;;;;;;;80.30;49.30;;;;;;;8.38;86.90;99964.32;103382;1295;137857;-80
2022/10/15 02:31:41;;;;;;;80.70;50.30;;;;;;;8.36;87.02;99960.39;103385;1287;110498;-81
2022/10/15 02:34:12;;;;;;;76.90;52.10;;;;;;;8.36;87.16;99955.73;103274;1291;138310;-81
2022/10/15 02:36:42;;;;;;;73.90;49.70;;;;;;;8.35;87.19;99951.08;103429;1298;108281;-81
2022/10/15 02:39:14;;;;;;;76.10;52.00;;;;;;;8.35;87.38;99951.44;103246;1295;138690;-79
2022/10/15 02:41:44;;;;;;;86.20;51.80;;;;;;;8.34;87.47;99949.89;103504;1292;97846;-77
2022/10/15 02:44:14;;;;;;;83.30;53.00;;;;;;;8.34;87.46;99944.52;103358;1300;110514;-79
2022/10/15 02:46:43;;;;;;;82.60;52.00;;;;;;;8.33;87.54;99945.92;103260;1293;139246;-80
2022/10/15 02:49:12;;;;;;;83.90;51.90;;;;;;;8.33;87.69;99945.21;103463;1297;108709;-80
2022/10/15 02:51:41;;;;;;;80.00;51.50;;;;;;;8.33;87.86;99948.70;103127;1293;140201;-80
2022/10/15 02:54:10;;;;;;;81.10;51.30;;;;;;;8.33;88.02;99947.98;103444;1295;98321;-82
2022/10/15 02:56:39;;;;;;;80.10;51.70;;;;;;;8.33;88.04;99944.70;103411;1297;110564;-80
2022/10/15 02:59:08;;;;;;;81.50;51.80;;;;;;;8.33;88.01;99943.85;103261;1299;138141;-79
2022/10/15 03:01:37;;;;;;;81.90;53.20;;;;;;;8.33;88.18;99946.09;103313;1295;107210;-81
2022/10/15 03:04:06;;;;;;;80.30;52.30;;;;;;;8.33;88.38;99943.82;103279;1303;138243;-80
2022/10/15 03:06:35;;;;;;;82.30;52.70;;;;;;;8.33;88.31;99946.42;103284;1299;97883;-82
2022/10/15 03:09:04;;;;;;;83.60;50.90;;;;;;;8.34;88.36;99950.59;103223;1293;138225;-80
2022/10/15 03:11:33;;;;;;;77.20;50.70;;;;;;;8.33;88.25;99945.22;103323;1300;109032;-80
2022/10/15 03:14:02;;;;;;;80.20;51.30;;;;;;;8.33;88.15;99941.08;103376;1284;107981;-82
2022/10/15 03:16:32;;;;;;;80.40;51.50;;;;;;;8.31;88.29;99943.37;103363;1290;138584;-80
2022/10/15 03:19:01;;;;;;;84.30;52.20;;;;;;;8.31;88.31;99942.68;103407;1295;99438;-81
2022/10/15 03:21:29;;;;;;;78.90;50.70;;;;;;;8.30;88.47;99945.66;103821;1296;138290;-81
2022/10/15 03:24:04;;;;;;;84.10;49.00;;;;;;;8.29;88.47;99946.02;103474;1297;108066;-81
2022/10/15 03:26:33;;;;;;;76.10;50.90;;;;;;;8.29;88.45;99944.32;103482;1294;107800;-81
2022/10/15 03:29:02;;;;;;;80.60;51.30;;;;;;;8.28;88.51;99942.06;103311;1299;138338;-79
2022/10/15 03:31:35;;;;;;;79.70;50.50;;;;;;;8.28;88.54;99942.94;103555;1300;97820;-80
2022/10/15 03:34:05;;;;;;;78.80;50.30;;;;;;;8.29;88.67;99947.42;103381;1300;138032;-80
2022/10/15 03:36:34;;;;;;;79.50;50.40;;;;;;;8.29;88.66;99945.35;103494;1298;108087;-81
2022/10/15 03:39:02;;;;;;;76.50;50.00;;;;;;;8.28;88.76;99938.80;103303;1293;138589;-79
2022/10/15 03:41:31;;;;;;;84.20;50.80;;;;;;;8.26;88.63;99939.70;103345;1299;97909;-78
2022/10/15 03:44:02;;;;;;;76.20;50.20;;;;;;;8.25;88.57;99943.86;103471;1295;97842;-81
2022/10/15 03:46:32;;;;;;;79.60;51.20;;;;;;;8.24;88.78;99945.63;103261;1299;139317;-80
2022/10/15 03:49:01;;;;;;;78.30;50.30;;;;;;;8.24;88.83;99946.31;103334;1288;106767;-81
2022/10/15 03:51:31;;;;;;;80.20;51.20;;;;;;;8.23;88.83;99939.42;103340;1293;138510;-76
2022/10/15 03:54:06;;;;;;;79.50;49.90;;;;;;;8.22;88.74;99933.56;103546;1299;98034;-80
2022/10/15 03:56:40;;;;;;;80.70;50.90;;;;;;;8.21;88.89;99926.66;103393;1296;98461;-77
2022/10/15 03:59:24;;;;;;;82.20;51.10;;;;;;;8.22;88.92;99920.58;103401;1294;110875;-79
2022/10/15 04:01:58;;;;;;;80.10;50.20;;;;;;;8.22;88.95;99919.70;103508;1293;107570;-79
2022/10/15 04:04:27;;;;;;;79.70;50.40;;;;;;;8.23;89.16;99916.72;103323;1296;138523;-78
2022/10/15 04:06:56;;;;;;;83.60;50.50;;;;;;;8.25;89.32;99916.33;103405;1293;97909;-80
2022/10/15 04:09:25;;;;;;;80.30;49.80;;;;;;;8.26;89.36;99916.83;103268;1302;138472;-80
2022/10/15 04:11:58;;;;;;;82.10;52.00;;;;;;;8.28;89.66;99914.88;103030;1291;111247;-79
2022/10/15 04:14:27;;;;;;;83.30;51.80;;;;;;;8.31;89.79;99910.64;103592;1294;107230;-82
2022/10/15 04:16:57;;;;;;;80.20;50.90;;;;;;;8.35;89.96;99909.52;102969;1293;139986;-78
2022/10/15 04:19:26;;;;;;;82.70;49.90;;;;;;;8.38;89.97;99907.66;104603;1283;97863;-79
2022/10/15 04:22:00;;;;;;;78.60;49.50;;;;;;;8.43;90.17;99905.64;103763;1294;138663;-82
2022/10/15 04:24:37;;;;;;;82.50;49.80;;;;;;;8.47;90.15;99911.23;103105;1285;111723;-80
2022/10/15 04:27:06;;;;;;;76.10;48.80;;;;;;;8.52;90.05;99907.64;103116;1290;138443;-81
2022/10/15 04:29:35;;;;;;;72.80;47.90;;;;;;;8.57;90.16;99900.91;104555;1302;106824;-82
2022/10/15 04:32:15;;;;;;;71.30;46.40;;;;;;;8.61;90.22;99904.59;103034;1285;97827;-81
2022/10/15 04:34:45;;;;;;;75.40;47.80;;;;;;;8.67;90.30;99905.63;102809;1293;138354;-80
2022/10/15 04:37:14;;;;;;;73.10;46.40;;;;;;;8.72;90.20;99906.52;102924;1299;111259;-78
2022/10/15 04:39:42;;;;;;;71.70;45.50;;;;;;;8.77;89.93;99911.37;102846;1285;138890;-79
2022/10/15 04:42:14;;;;;;;71.20;46.70;;;;;;;8.81;89.90;99903.66;103078;1285;107134;-80
2022/10/15 04:44:42;;;;;;;71.50;46.20;;;;;;;8.84;89.76;99901.12;103128;1283;97955;-83
2022/10/15 04:47:11;;;;;;;66.30;45.40;;;;;;;8.88;89.72;99905.16;102986;1293;138279;-81
2022/10/15 04:49:51;;;;;;;67.10;43.60;;;;;;;8.91;89.61;99906.80;103399;1300;110390;-82
2022/10/15 04:52:32;;;;;;;71.40;45.50;;;;;;;8.93;89.49;99904.65;103233;1299;139059;-81
2022/10/15 04:55:07;;;;;;;70.70;45.10;;;;;;;8.95;89.36;99904.23;103397;1293;107072;-81
2022/10/15 04:57:38;;;;;;;64.40;42.70;;;;;;;8.96;89.19;99895.71;103222;1295;139678;-80
2022/10/15 05:00:10;;;;;;;66.60;45.00;;;;;;;8.99;89.01;99905.71;103497;1294;97913;-80
2022/10/15 05:02:57;;;;;;;64.00;42.30;;;;;;;9.00;88.95;99901.67;103046;1293;139122;-80
2022/10/15 05:05:36;;;;;;;67.20;44.50;;;;;;;9.00;88.85;99898.73;103053;1293;107449;-81
2022/10/15 05:08:06;;;;;;;68.30;43.90;;;;;;;9.00;88.77;99901.84;103095;1285;106688;-81
2022/10/15 05:10:46;;;;;;;66.30;44.20;;;;;;;9.02;88.64;99902.81;102909;1287;139869;-81
2022/10/15 05:13:15;;;;;;;71.10;45.30;;;;;;;9.03;88.62;99898.45;103061;1285;97809;-80
2022/10/15 05:15:44;;;;;;;70.20;44.20;;;;;;;9.06;88.56;99902.17;102906;1293;138355;-82
2022/10/15 05:18:13;;;;;;;70.60;43.00;;;;;;;9.10;88.53;99907.27;102979;1294;108275;-81
2022/10/15 05:20:47;;;;;;;66.50;43.90;;;;;;;9.15;88.36;99904.34;103115;1291;107376;-80
2022/10/15 05:23:18;;;;;;;70.20;43.80;;;;;;;9.20;88.31;99903.98;102940;1294;98018;-83
2022/10/15 05:25:54;;;;;;;65.20;42.30;;;;;;;9.28;88.13;99904.05;103147;1291;97846;-78
2022/10/15 05:28:25;;;;;;;59.10;42.30;;;;;;;9.36;87.92;99905.91;102898;1292;138470;-79
2022/10/15 05:30:53;;;;;;;61.80;40.70;;;;;;;9.45;87.75;99903.51;103093;1288;107482;-79
2022/10/15 05:33:22;;;;;;;59.80;41.80;;;;;;;9.54;87.39;99908.42;102974;1285;139806;-81
2022/10/15 05:35:51;;;;;;;65.10;41.20;;;;;;;9.62;86.92;99906.05;103409;1292;97846;-82
2022/10/15 05:38:22;;;;;;;59.00;40.50;;;;;;;9.71;86.63;99912.20;103358;1293;97918;-81
2022/10/15 05:40:51;;;;;;;59.10;40.50;;;;;;;9.78;86.30;99915.11;103273;1295;138301;-80
2022/10/15 05:43:22;;;;;;;56.20;39.60;;;;;;;9.85;86.02;99922.65;103353;1299;107316;-81
2022/10/15 05:45:54;;;;;;;58.40;39.60;;;;;;;9.94;85.73;99926.16;103397;1293;138649;-82
2022/10/15 05:48:22;;;;;;;59.20;38.70;;;;;;;10.06;85.36;99929.58;103398;1293;97849;-80
2022/10/15 05:50:52;;;;;;;54.20;39.60;;;;;;;10.19;85.00;99920.09;103480;1299;97727;-80
2022/10/15 05:53:25;;;;;;;54.50;37.90;;;;;;;10.34;84.59;99923.91;103436;1291;111217;-80
2022/10/15 05:55:59;;;;;;;58.30;38.10;;;;;;;10.51;84.35;99922.25;103436;1285;107580;-81
2022/10/15 05:58:33;;;;;;;54.40;37.70;;;;;;;10.68;83.87;99913.95;103312;1292;138626;-82
2022/10/15 06:01:08;;;;;;;50.60;36.50;;;;;;;10.89;83.56;99914.71;103428;1290;97867;-83
2022/10/15 06:03:40;;;;;;;50.10;36.10;;;;;;;11.07;82.98;99916.27;103535;1301;138586;-81
2022/10/15 06:06:15;;;;;;;45.40;35.30;;;;;;;11.27;82.63;99914.79;103279;1291;110516;-79
2022/10/15 06:08:45;;;;;;;48.40;35.10;;;;;;;11.50;82.07;99917.15;103411;1294;108204;-83
2022/10/15 06:11:14;;;;;;;51.20;34.50;;;;;;;11.70;81.48;99921.33;103302;1293;138608;-81
2022/10/15 06:13:43;;;;;;;46.50;34.70;;;;;;;11.90;80.51;99927.13;103382;1293;97859;-81
2022/10/15 06:16:15;;;;;;;48.90;32.90;;;;;;;12.09;79.93;99918.83;103227;1292;138424;-82
2022/10/15 06:18:50;;;;;;;46.50;32.50;;;;;;;12.27;79.37;99920.83;103435;1301;111838;-82
2022/10/15 06:21:19;;;;;;;46.20;33.80;;;;;;;12.41;78.81;99918.98;103288;1293;138900;-85
2022/10/15 06:23:47;;;;;;;46.10;33.10;;;;;;;12.52;78.19;99918.14;103424;1293;106848;-82
2022/10/15 06:26:16;;;;;;;47.20;33.70;;;;;;;12.53;77.76;99919.48;103500;1293;98099;-81
2022/10/15 06:28:46;;;;;;;48.40;33.80;;;;;;;12.61;77.71;99917.91;103430;1293;138596;-84
2022/10/15 06:31:15;;;;;;;45.80;33.20;;;;;;;12.83;77.28;99918.82;103308;1285;110721;-82
2022/10/15 06:33:44;;;;;;;49.00;32.30;;;;;;;12.92;76.52;99924.14;103358;1293;138647;-81
2022/10/15 06:36:13;;;;;;;48.50;32.70;;;;;;;12.88;76.18;99924.88;103491;1293;107792;-86
2022/10/15 06:38:43;;;;;;;41.30;30.70;;;;;;;12.80;76.01;99923.84;103476;1294;97894;-82
2022/10/15 06:41:11;;;;;;;44.00;32.20;;;;;;;12.70;75.97;99928.83;103353;1290;138740;-83
2022/10/15 06:43:40;;;;;;;42.40;31.30;;;;;;;12.61;76.06;99932.93;103480;1290;112703;-81
2022/10/15 06:46:11;;;;;;;39.60;31.50;;;;;;;12.88;76.04;99929.39;103342;1288;139525;-84
2022/10/15 06:48:40;;;;;;;45.90;32.00;;;;;;;13.41;75.56;99930.72;103345;1293;108574;-81
2022/10/15 06:51:08;;;;;;;40.90;30.30;;;;;;;13.94;74.51;99936.29;103023;1291;140149;-81
2022/10/15 06:53:39;;;;;;;44.00;30.00;;;;;;;14.35;73.45;99937.65;103111;1286;98460;-82
2022/10/15 06:56:08;;;;;;;42.50;29.70;;;;;;;14.65;72.31;99944.86;103111;1285;111465;-81
2022/10/15 06:58:41;;;;;;;40.50;29.80;;;;;;;14.90;71.86;99937.70;103071;1287;139266;-81
2022/10/15 07:01:10;;;;;;;37.40;28.30;;;;;;;15.26;71.23;99939.05;103129;1285;107884;-80
2022/10/15 07:03:39;;;;;;;39.40;29.40;;;;;;;15.64;70.38;99940.56;103102;1285;138904;-81
2022/10/15 07:06:09;;;;;;;38.10;28.90;;;;;;;15.91;68.81;99945.45;103097;1285;98384;-79
2022/10/15 07:08:38;;;;;;;36.20;27.90;;;;;;;16.06;68.41;99943.36;103022;1284;111657;-80
2022/10/15 07:11:08;;;;;;;38.90;28.50;;;;;;;16.23;67.67;99945.66;103038;1283;138623;-78
2022/10/15 07:13:37;;;;;;;40.40;27.90;;;;;;;16.27;66.66;99941.67;103132;1293;107647;-80
2022/10/15 07:16:09;;;;;;;34.10;27.10;;;;;;;16.28;66.76;99940.10;104567;1292;140429;-81
2022/10/15 07:18:39;;;;;;;32.40;26.40;;;;;;;16.51;66.63;99945.90;104695;1293;97367;-77
2022/10/15 07:21:10;;;;;;;37.80;27.50;;;;;;;16.77;65.65;99942.55;104768;1292;139129;-80
2022/10/15 07:23:43;;;;;;;31.60;25.90;;;;;;;16.93;65.18;99937.16;103723;1300;108871;-80
2022/10/15 07:26:12;;;;;;;32.70;26.00;;;;;;;17.04;64.21;99945.22;103406;1301;106926;-81
2022/10/15 07:28:40;;;;;;;33.20;25.40;;;;;;;17.07;64.10;99937.33;103312;1285;138712;-79
2022/10/15 07:31:09;;;;;;;32.10;25.00;;;;;;;17.03;63.85;99942.29;103454;1287;97953;-79
2022/10/15 07:33:38;;;;;;;31.50;25.50;;;;;;;16.86;63.85;99936.55;103328;1291;139104;-80
2022/10/15 07:36:09;;;;;;;33.40;25.60;;;;;;;16.55;63.83;99940.02;103492;1295;108954;-80
2022/10/15 07:38:38;;;;;;;34.70;26.30;;;;;;;15.99;64.15;99949.73;103507;1294;106140;-80
2022/10/15 07:41:09;;;;;;;38.70;28.40;;;;;;;15.47;65.05;99937.14;103325;1292;138620;-83
2022/10/15 07:43:43;;;;;;;34.10;27.70;;;;;;;15.01;65.90;99933.58;103360;1292;97875;-81
2022/10/15 07:46:12;;;;;;;36.80;27.00;;;;;;;14.63;66.82;99932.16;103372;1297;138802;-81
2022/10/15 07:48:41;;;;;;;38.90;27.80;;;;;;;14.31;67.47;99934.17;103441;1290;107430;-80
2022/10/15 07:51:11;;;;;;;41.60;28.80;;;;;;;14.06;68.28;99937.43;103339;1293;138748;-80
2022/10/15 07:53:40;;;;;;;39.90;29.80;;;;;;;13.86;68.78;99939.85;103588;1293;97932;-79
2022/10/15 07:56:11;;;;;;;39.00;28.60;;;;;;;13.68;69.28;99955.61;103515;1289;97896;-78
2022/10/15 07:58:41;;;;;;;39.90;28.50;;;;;;;13.54;69.92;99943.55;103443;1293;138651;-79
2022/10/15 08:01:11;;;;;;;39.60;29.70;;;;;;;13.62;70.39;99942.43;103212;1287;107675;-78
2022/10/15 08:03:39;;;;;;;41.70;29.40;;;;;;;13.94;70.21;99935.58;102985;1290;139439;-86
2022/10/15 08:06:08;;;;;;;39.30;28.90;;;;;;;14.29;69.76;99929.92;103063;1286;97863;-78
2022/10/15 08:08:37;;;;;;;36.70;27.50;;;;;;;14.59;69.42;99935.02;103118;1290;97863;-81
2022/10/15 08:11:08;;;;;;;40.40;27.50;;;;;;;14.97;68.88;99932.77;102986;1287;139541;-79
2022/10/15 08:13:40;;;;;;;35.80;27.40;;;;;;;15.31;68.17;99928.59;103086;1291;107511;-81
2022/10/15 08:16:10;;;;;;;38.00;27.30;;;;;;;15.59;67.46;99932.06;103442;1292;138730;-82
2022/10/15 08:18:39;;;;;;;35.80;26.40;;;;;;;15.76;66.86;99939.49;103128;1284;97828;-80
2022/10/15 08:21:10;;;;;;;34.00;26.40;;;;;;;15.95;66.53;99939.98;103070;1293;139141;-81
2022/10/15 08:23:39;;;;;;;33.50;26.20;;;;;;;16.09;66.21;99934.61;103980;1293;111881;-80
2022/10/15 08:26:07;;;;;;;32.70;24.90;;;;;;;16.22;65.87;99931.52;103065;1285;107924;-79
2022/10/15 08:28:36;;;;;;;34.90;26.50;;;;;;;16.44;65.49;99932.98;102966;1286;138725;-82
2022/10/15 08:31:06;;;;;;;35.10;26.00;;;;;;;16.64;64.93;99929.64;103109;1291;97818;-79
2022/10/15 08:33:36;;;;;;;34.20;25.30;;;;;;;16.84;64.56;99926.30;103423;1286;138743;-80
2022/10/15 08:36:07;;;;;;;35.80;25.00;;;;;;;16.96;64.42;99927.98;104108;1285;111223;-80
2022/10/15 08:38:36;;;;;;;35.10;25.10;;;;;;;17.01;64.13;99919.25;103223;1287;108595;-81
2022/10/15 08:41:18;;;;;;;33.30;24.90;;;;;;;17.12;64.03;99917.45;103282;1300;140267;-80
2022/10/15 08:43:47;;;;;;;30.70;24.00;;;;;;;17.32;63.69;99912.46;103393;1293;97937;-80
2022/10/15 08:46:21;;;;;;;34.70;24.70;;;;;;;17.53;62.85;99915.64;103700;1300;138595;-83
2022/10/15 08:48:53;;;;;;;35.50;24.40;;;;;;;17.63;62.35;99912.22;103376;1291;111139;-80
2022/10/15 08:51:24;;;;;;;31.80;24.60;;;;;;;17.72;62.47;99906.49;103142;1284;139074;-81
2022/10/15 08:53:57;;;;;;;30.80;23.40;;;;;;;18.00;62.29;99895.98;103449;1293;108853;-82
2022/10/15 08:56:30;;;;;;;30.00;24.10;;;;;;;18.22;61.34;99910.83;103476;1299;97820;-90
2022/10/15 08:59:06;;;;;;;31.80;23.20;;;;;;;18.25;60.60;99903.81;103361;1302;138998;-81
2022/10/15 09:01:42;;;;;;;31.20;23.40;;;;;;;17.97;60.73;99910.27;103470;1292;111846;-86
2022/10/15 09:04:22;;;;;;;33.10;24.70;;;;;;;17.62;61.29;99912.95;103428;1278;137988;-79
2022/10/15 09:07:00;;;;;;;33.80;24.70;;;;;;;17.55;61.59;99903.61;103490;1293;108863;-86
2022/10/15 09:09:35;;;;;;;32.20;23.70;;;;;;;17.36;61.49;99899.95;103200;1292;138246;-84
2022/10/15 09:12:17;;;;;;;36.10;24.20;;;;;;;17.14;62.02;99899.59;103498;1285;99618;-80
2022/10/15 09:14:47;;;;;;;38.00;24.70;;;;;;;17.03;62.08;99902.83;103413;1284;111494;-81
2022/10/15 09:17:19;;;;;;;31.30;24.50;;;;;;;16.82;62.17;99910.27;103353;1285;138650;-80
2022/10/15 09:19:51;;;;;;;32.50;24.30;;;;;;;16.58;62.75;99907.02;103434;1292;107087;-80
2022/10/15 09:22:25;;;;;;;40.80;26.40;;;;;;;16.40;63.10;99914.95;103436;1288;138626;-83
2022/10/15 09:24:54;;;;;;;34.40;25.50;;;;;;;16.30;63.56;99910.78;103522;1293;97850;-79
2022/10/15 09:27:31;;;;;;;33.60;24.90;;;;;;;16.23;63.87;99910.20;103036;1285;138577;-80
2022/10/15 09:30:10;;;;;;;31.60;24.50;;;;;;;16.10;64.03;99918.89;103079;1283;107055;-79
2022/10/15 09:32:44;;;;;;;35.00;25.20;;;;;;;15.91;64.37;99931.09;103079;1286;106592;-81
2022/10/15 09:35:21;;;;;;;33.40;25.50;;;;;;;15.75;64.81;99922.02;102986;1292;138410;-81
2022/10/15 09:37:58;;;;;;;37.00;26.10;;;;;;;15.62;65.11;99929.47;104696;1285;96155;-82
2022/10/15 09:40:43;;;;;;;34.70;25.60;;;;;;;15.45;65.44;99920.94;103670;1277;138857;-81
2022/10/15 09:43:13;;;;;;;36.40;25.90;;;;;;;15.31;65.86;99921.23;104002;1293;107062;-82
2022/10/15 09:45:42;;;;;;;39.40;26.90;;;;;;;15.25;66.33;99914.75;103015;1277;139723;-87
2022/10/15 09:48:17;;;;;;;36.80;24.90;;;;;;;15.21;66.55;99928.99;103099;1286;99634;-79
2022/10/15 09:50:55;;;;;;;36.10;25.70;;;;;;;15.15;66.87;99923.58;103452;1284;98058;-81
2022/10/15 09:53:33;;;;;;;39.00;25.80;;;;;;;15.10;67.10;99921.54;103048;1284;110491;-79
2022/10/15 09:56:10;;;;;;;37.80;25.40;;;;;;;15.05;67.27;99928.61;103104;1284;107087;-80
2022/10/15 09:58:46;;;;;;;38.10;25.30;;;;;;;15.00;67.49;99918.57;102986;1286;139554;-80
2022/10/15 10:01:20;;;;;;;34.10;25.50;;;;;;;14.97;67.78;99919.09;103004;1293;98176;-80
2022/10/15 10:03:53;;;;;;;36.80;24.90;;;;;;;14.95;67.97;99917.10;103046;1292;138636;-81
2022/10/15 10:06:23;;;;;;;35.60;24.80;;;;;;;14.97;68.01;99911.20;103442;1290;111289;-82
2022/10/15 10:08:55;;;;;;;33.50;25.40;;;;;;;15.02;68.19;99906.04;103516;1281;106937;-82
2022/10/15 10:11:26;;;;;;;36.30;24.30;;;;;;;15.10;68.22;99904.73;103390;1294;108668;-83
2022/10/15 10:13:58;;;;;;;33.60;23.20;;;;;;;15.20;68.25;99902.55;103425;1297;97793;-81
2022/10/15 10:16:28;;;;;;;36.80;24.10;;;;;;;15.35;68.12;99902.27;103087;1287;138470;-81
2022/10/15 10:19:10;;;;;;;33.00;22.00;;;;;;;15.63;67.86;99902.77;103340;1294;112074;-80
2022/10/15 10:21:41;;;;;;;31.90;22.60;;;;;;;15.95;67.14;99897.89;103332;1299;138821;-79
2022/10/15 10:24:27;;;;;;;30.80;22.50;;;;;;;16.23;66.83;99893.19;103387;1294;107807;-83
2022/10/15 10:26:57;;;;;;;30.30;21.40;;;;;;;16.56;66.08;99895.20;103647;1301;97828;-78
2022/10/15 10:29:27;;;;;;;30.40;21.10;;;;;;;16.83;65.53;99887.16;103414;1301;97832;-81
2022/10/15 10:32:17;;;;;;;29.80;21.20;;;;;;;17.06;64.56;99889.26;103425;1291;113092;-80
2022/10/15 10:34:46;;;;;;;28.90;20.90;;;;;;;17.28;64.05;99891.68;103125;1286;139025;-89
2022/10/15 10:37:21;;;;;;;34.80;20.70;;;;;;;17.42;63.36;99885.30;103069;1292;107812;-79
2022/10/15 10:39:56;;;;;;;30.60;20.90;;;;;;;17.53;62.65;99892.08;102980;1287;138559;-80
2022/10/15 10:42:30;;;;;;;27.60;20.30;;;;;;;17.61;62.30;99894.05;103125;1293;97768;-83
2022/10/15 10:45:18;;;;;;;25.80;19.80;;;;;;;17.70;62.19;99883.06;103071;1287;138729;-85
2022/10/15 10:47:48;;;;;;;25.30;19.20;;;;;;;17.86;62.51;99878.33;103103;1292;107340;-79
2022/10/15 10:50:32;;;;;;;25.60;19.80;;;;;;;18.02;61.77;99884.05;103093;1293;107520;-88
2022/10/15 10:53:19;;;;;;;31.40;19.80;;;;;;;18.09;61.24;99876.87;103186;1285;138682;-80
2022/10/15 10:55:48;;;;;;;;;;;;;;;18.17;61.14;99878.66;103115;1287;97948;-80
2022/10/15 10:58:21;;;;;;;25.60;18.60;;;;;;;18.22;60.61;99888.70;103081;1284;124763;-86
2022/10/15 11:00:57;;;;;;;26.20;18.40;;;;;;;18.15;59.95;99873.88;103125;1287;107131;-81
2022/10/15 11:03:37;;;;;;;24.80;18.90;;;;;;;18.14;59.97;99875.91;102824;1290;182874;-77
2022/10/15 11:06:28;;;;;;;24.90;17.90;;;;;;;18.13;59.52;99876.25;103330;1287;97831;-84
2022/10/15 11:09:10;;;;;;;23.10;18.40;;;;;;;18.13;59.39;99889.84;103341;1300;138597;-80
2022/10/15 11:11:50;;;;;;;24.10;17.90;;;;;;;18.10;59.57;99876.98;103446;1293;111503;-82
2022/10/15 11:14:26;;;;;;;23.20;17.20;;;;;;;18.15;59.76;99864.17;103311;1291;107712;-85
2022/10/15 11:17:02;;;;;;;21.80;17.40;;;;;;;18.21;59.61;99873.78;103353;1300;138545;-79
2022/10/15 11:19:38;;;;;;;20.20;16.30;;;;;;;18.27;60.10;99868.11;103347;1278;97823;-81
2022/10/15 11:22:43;;;;;;;24.00;17.70;;;;;;;18.40;59.73;99863.31;103300;1283;138062;-82
2022/10/15 11:25:22;;;;;;;23.20;18.10;;;;;;;18.45;58.77;99874.70;103509;1295;109255;-79
2022/10/15 11:28:05;;;;;;;20.40;16.50;;;;;;;18.40;58.63;99876.33;103557;1283;138579;-82
2022/10/15 11:30:48;;;;;;;21.80;17.10;;;;;;;18.26;58.61;99886.27;103456;1291;107544;-80
2022/10/15 11:33:40;;;;;;;25.70;17.10;;;;;;;18.11;59.06;99870.75;103254;1294;138199;-81